Time;durP1;ratioP1;P1;durP2;ratioP2;P2;SDS_P1;SDS_P2;PMS_P1;PMS_P2;Temp;Humidity;BMP_temperature;BMP_pressure;BME280_temperature;BME280_humidity;BME280_pressure;Samples;Min_cycle;Max_cycle;Signal;HPM_P1;HPM_P2
2023/05/25 00:01:47;;;;;;;8.38;3.85;;;;;;;;;;5007983;28;20446;-84
2023/05/25 00:04:15;;;;;;;6.20;3.58;;;;;;;;;;5011370;28;20765;-85
2023/05/25 00:06:41;;;;;;;5.75;3.55;;;;;;;;;;5011365;28;20399;-83
2023/05/25 00:09:07;;;;;;;6.57;3.60;;;;;;;;;;5011296;28;20442;-85
2023/05/25 00:11:33;;;;;;;7.47;3.55;;;;;;;;;;5011176;28;20504;-84
2023/05/25 00:13:59;;;;;;;7.28;3.60;;;;;;;;;;5011250;28;20411;-85
2023/05/25 00:16:26;;;;;;;5.50;3.30;;;;;;;;;;5011072;28;21138;-83
2023/05/25 00:18:56;;;;;;;7.55;3.50;;;;;;;;;;5011242;28;20858;-83
2023/05/25 00:21:23;;;;;;;6.25;3.20;;;;;;;;;;5011342;28;20385;-83
2023/05/25 00:23:49;;;;;;;6.25;3.35;;;;;;;;;;5011165;28;20860;-84
2023/05/25 00:26:15;;;;;;;4.38;2.75;;;;;;;;;;5011241;28;20889;-84
2023/05/25 00:28:41;;;;;;;6.10;3.42;;;;;;;;;;5011127;28;20397;-84
2023/05/25 00:31:07;;;;;;;6.88;3.20;;;;;;;;;;5010977;28;20412;-85
2023/05/25 00:33:33;;;;;;;6.70;3.10;;;;;;;;;;5013776;28;20936;-84
2023/05/25 00:35:59;;;;;;;5.33;3.23;;;;;;;;;;5011063;28;20487;-84
2023/05/25 00:38:25;;;;;;;9.68;3.42;;;;;;;;;;5011162;28;20889;-85
2023/05/25 00:40:55;;;;;;;5.57;3.15;;;;;;;;;;5013499;28;20380;-82
2023/05/25 00:43:21;;;;;;;6.15;3.53;;;;;;;;;;5014949;28;20384;-83
2023/05/25 00:45:47;;;;;;;6.85;3.47;;;;;;;;;;5014751;28;20472;-83
2023/05/25 00:48:13;;;;;;;7.35;3.80;;;;;;;;;;5014799;28;20844;-85
2023/05/25 00:50:41;;;;;;;6.82;3.60;;;;;;;;;;5014791;28;20925;-84
2023/05/25 00:53:07;;;;;;;5.35;3.40;;;;;;;;;;5014644;28;20404;-83
2023/05/25 00:55:45;;;;;;;7.45;3.50;;;;;;;;;;5014829;28;20376;-85
2023/05/25 00:58:13;;;;;;;5.82;3.30;;;;;;;;;;5014548;28;20407;-84
2023/05/25 01:00:40;;;;;;;6.55;3.35;;;;;;;;;;5002765;28;20376;-84
2023/05/25 01:03:10;;;;;;;6.43;3.38;;;;;;;;;;5014715;28;20476;-85
2023/05/25 01:05:37;;;;;;;6.47;3.50;;;;;;;;;;5014486;28;20384;-86
2023/05/25 01:08:04;;;;;;;5.88;3.65;;;;;;;;;;5014537;28;20412;-83
2023/05/25 01:10:32;;;;;;;5.87;3.43;;;;;;;;;;5014323;28;20400;-84
2023/05/25 01:12:59;;;;;;;7.10;3.63;;;;;;;;;;5014162;28;20416;-84
2023/05/25 01:15:26;;;;;;;6.32;3.45;;;;;;;;;;5014314;28;20388;-85
2023/05/25 01:17:52;;;;;;;4.72;3.28;;;;;;;;;;5015679;28;20389;-83
2023/05/25 01:20:19;;;;;;;5.03;3.63;;;;;;;;;;5013972;28;20518;-84
2023/05/25 01:22:50;;;;;;;6.68;3.38;;;;;;;;;;5014248;28;20385;-85
2023/05/25 01:25:21;;;;;;;6.18;3.30;;;;;;;;;;5014106;28;20868;-85
2023/05/25 01:27:57;;;;;;;6.50;3.30;;;;;;;;;;5014080;28;20450;-84
2023/05/25 01:30:25;;;;;;;5.85;3.55;;;;;;;;;;4996499;28;20875;-84
2023/05/25 01:32:51;;;;;;;6.03;2.90;;;;;;;;;;5011340;28;20400;-84
2023/05/25 01:35:19;;;;;;;6.37;3.50;;;;;;;;;;5013564;28;20504;-84
2023/05/25 01:37:46;;;;;;;6.38;3.35;;;;;;;;;;5013930;28;20412;-84
2023/05/25 01:40:13;;;;;;;6.18;3.75;;;;;;;;;;5014011;28;20381;-86
2023/05/25 01:42:39;;;;;;;6.68;3.35;;;;;;;;;;5013935;28;20436;-83
2023/05/25 01:45:05;;;;;;;6.82;3.58;;;;;;;;;;5013771;28;20389;-84
2023/05/25 01:47:37;;;;;;;5.55;3.28;;;;;;;;;;5013839;28;20870;-83
2023/05/25 01:50:22;;;;;;;5.18;3.40;;;;;;;;;;5013565;28;20488;-83
2023/05/25 01:52:56;;;;;;;7.63;3.80;;;;;;;;;;5012586;28;20475;-84
2023/05/25 01:55:25;;;;;;;7.55;3.70;;;;;;;;;;5012785;28;20395;-84
2023/05/25 01:57:56;;;;;;;6.05;3.70;;;;;;;;;;5012728;28;20423;-86
2023/05/25 02:00:23;;;;;;;6.63;3.38;;;;;;;;;;5013578;28;20958;-86
2023/05/25 02:02:50;;;;;;;6.03;3.80;;;;;;;;;;5013574;28;20388;-84
2023/05/25 02:05:19;;;;;;;4.03;3.30;;;;;;;;;;5013343;28;20426;-86
2023/05/25 02:07:45;;;;;;;5.35;3.55;;;;;;;;;;5013311;28;20439;-86
2023/05/25 02:10:11;;;;;;;5.20;3.45;;;;;;;;;;5012155;28;20381;-84
2023/05/25 02:12:37;;;;;;;5.65;3.30;;;;;;;;;;5003864;28;20427;-84
2023/05/25 02:15:04;;;;;;;5.50;3.70;;;;;;;;;;4988621;28;20451;-83
2023/05/25 02:17:30;;;;;;;5.47;3.25;;;;;;;;;;5010676;28;20383;-85
2023/05/25 02:19:56;;;;;;;5.53;3.65;;;;;;;;;;5013450;28;20385;-85
2023/05/25 02:22:23;;;;;;;5.25;3.47;;;;;;;;;;5012494;28;20810;-85
2023/05/25 02:24:49;;;;;;;5.85;3.60;;;;;;;;;;5013519;28;20385;-84
2023/05/25 02:27:15;;;;;;;5.70;3.53;;;;;;;;;;5014189;28;20385;-86
2023/05/25 02:29:41;;;;;;;5.93;3.60;;;;;;;;;;5013086;28;20949;-84
2023/05/25 02:32:07;;;;;;;6.70;3.60;;;;;;;;;;4995440;28;20952;-86
2023/05/25 02:34:33;;;;;;;7.85;3.80;;;;;;;;;;5012911;28;20392;-84
2023/05/25 02:37:03;;;;;;;7.17;3.80;;;;;;;;;;5013002;28;20385;-84
2023/05/25 02:39:29;;;;;;;6.00;3.60;;;;;;;;;;5012919;28;20893;-86
2023/05/25 02:41:55;;;;;;;4.68;3.15;;;;;;;;;;5012944;28;20758;-83
2023/05/25 02:44:21;;;;;;;6.85;3.30;;;;;;;;;;5012916;28;20385;-85
2023/05/25 02:46:47;;;;;;;6.30;3.53;;;;;;;;;;5012711;28;20385;-85
2023/05/25 02:49:13;;;;;;;8.27;3.83;;;;;;;;;;5012784;28;20408;-85
2023/05/25 02:51:39;;;;;;;7.15;3.60;;;;;;;;;;5010319;28;20435;-84
2023/05/25 02:54:05;;;;;;;6.93;3.70;;;;;;;;;;5011361;28;20385;-84
2023/05/25 02:56:31;;;;;;;6.65;3.72;;;;;;;;;;5010786;28;20439;-84
2023/05/25 02:58:58;;;;;;;6.10;3.53;;;;;;;;;;5018558;28;20874;-87
2023/05/25 03:01:24;;;;;;;5.75;3.63;;;;;;;;;;5017155;28;20483;-85
2023/05/25 03:03:53;;;;;;;6.40;3.60;;;;;;;;;;5010716;28;20388;-85
2023/05/25 03:06:24;;;;;;;8.33;3.80;;;;;;;;;;5012027;28;20742;-84
2023/05/25 03:08:50;;;;;;;6.70;3.53;;;;;;;;;;5011977;28;20438;-86
2023/05/25 03:11:16;;;;;;;7.63;3.70;;;;;;;;;;5014642;28;20872;-86
2023/05/25 03:13:42;;;;;;;6.32;3.70;;;;;;;;;;5012060;28;20393;-84
2023/05/25 03:16:08;;;;;;;4.93;3.35;;;;;;;;;;5012094;28;20409;-85
2023/05/25 03:18:35;;;;;;;6.32;4.03;;;;;;;;;;5012085;28;20901;-86
2023/05/25 03:21:01;;;;;;;7.93;4.03;;;;;;;;;;5011959;28;20781;-85
2023/05/25 03:23:27;;;;;;;9.82;4.20;;;;;;;;;;5012085;28;20384;-86
2023/05/25 03:25:53;;;;;;;8.27;4.10;;;;;;;;;;5011714;28;20396;-85
2023/05/25 03:28:19;;;;;;;7.35;4.03;;;;;;;;;;5011776;28;20379;-86
2023/05/25 03:30:45;;;;;;;6.68;4.10;;;;;;;;;;5011846;28;20388;-86
2023/05/25 03:33:12;;;;;;;6.93;3.80;;;;;;;;;;5011452;28;20416;-83
2023/05/25 03:35:38;;;;;;;8.23;4.15;;;;;;;;;;5011761;28;20388;-84
2023/05/25 03:38:04;;;;;;;6.80;3.80;;;;;;;;;;5011722;28;20475;-85
2023/05/25 03:40:30;;;;;;;6.80;3.95;;;;;;;;;;5011624;28;20456;-83
2023/05/25 03:42:56;;;;;;;5.68;3.45;;;;;;;;;;5011782;28;20385;-85
2023/05/25 03:45:22;;;;;;;9.07;3.70;;;;;;;;;;5011636;28;20838;-85
2023/05/25 03:47:48;;;;;;;6.07;3.30;;;;;;;;;;5011651;28;20384;-84
2023/05/25 03:50:15;;;;;;;5.47;3.60;;;;;;;;;;5011609;28;20389;-83
2023/05/25 03:52:41;;;;;;;5.30;3.57;;;;;;;;;;5011279;28;20416;-85
2023/05/25 03:55:07;;;;;;;8.20;3.72;;;;;;;;;;5010906;28;20388;-85
2023/05/25 03:57:33;;;;;;;7.65;3.53;;;;;;;;;;5011154;28;20490;-85
2023/05/25 03:59:59;;;;;;;6.97;4.00;;;;;;;;;;5011211;28;20380;-85
2023/05/25 04:02:25;;;;;;;7.47;3.90;;;;;;;;;;5011325;28;20948;-85
2023/05/25 04:04:52;;;;;;;5.35;3.80;;;;;;;;;;5011205;28;20464;-85
2023/05/25 04:07:19;;;;;;;7.67;4.00;;;;;;;;;;5011315;28;20388;-85
2023/05/25 04:09:45;;;;;;;6.82;4.35;;;;;;;;;;5011608;28;20435;-84
2023/05/25 04:12:11;;;;;;;6.00;4.15;;;;;;;;;;5011290;28;20508;-84
2023/05/25 04:14:37;;;;;;;6.57;4.00;;;;;;;;;;5010591;28;20876;-84
2023/05/25 04:17:03;;;;;;;7.93;4.20;;;;;;;;;;5011173;28;20475;-86
2023/05/25 04:19:29;;;;;;;6.88;4.55;;;;;;;;;;5010983;28;20742;-85
2023/05/25 04:21:55;;;;;;;7.60;4.78;;;;;;;;;;5010905;28;20393;-84
2023/05/25 04:24:21;;;;;;;7.73;4.63;;;;;;;;;;5010954;28;20404;-84
2023/05/25 04:26:48;;;;;;;7.10;4.80;;;;;;;;;;5011137;28;20395;-84
2023/05/25 04:29:14;;;;;;;8.98;4.85;;;;;;;;;;5007936;28;20393;-86
2023/05/25 04:31:42;;;;;;;7.57;4.50;;;;;;;;;;4980334;28;20840;-85
2023/05/25 04:34:08;;;;;;;6.53;4.20;;;;;;;;;;4999753;28;20413;-86
2023/05/25 04:36:37;;;;;;;8.32;4.82;;;;;;;;;;5010840;28;21340;-86
2023/05/25 04:39:03;;;;;;;6.97;4.72;;;;;;;;;;5011226;28;20431;-86
2023/05/25 04:41:29;;;;;;;5.72;4.35;;;;;;;;;;5010964;28;20392;-83
2023/05/25 04:43:55;;;;;;;7.40;4.88;;;;;;;;;;4993412;28;20456;-84
2023/05/25 04:46:21;;;;;;;5.80;4.25;;;;;;;;;;4993161;28;20943;-84
2023/05/25 04:48:47;;;;;;;8.57;4.90;;;;;;;;;;5011114;28;20389;-83
2023/05/25 04:51:13;;;;;;;6.77;4.67;;;;;;;;;;5010821;28;20388;-83
2023/05/25 04:53:39;;;;;;;6.75;4.55;;;;;;;;;;5011513;28;20373;-83
2023/05/25 04:56:05;;;;;;;7.32;4.60;;;;;;;;;;5010621;28;20392;-83
2023/05/25 04:58:32;;;;;;;6.87;4.70;;;;;;;;;;5010589;28;20487;-83
2023/05/25 05:00:58;;;;;;;6.60;4.57;;;;;;;;;;5010226;28;20412;-83
2023/05/25 05:03:24;;;;;;;7.45;5.00;;;;;;;;;;5011892;28;21011;-83
2023/05/25 05:05:50;;;;;;;5.75;4.55;;;;;;;;;;5022387;28;20385;-85
2023/05/25 05:08:16;;;;;;;6.55;4.57;;;;;;;;;;5010613;28;20388;-85
2023/05/25 05:10:42;;;;;;;8.70;5.30;;;;;;;;;;5010821;28;20397;-82
2023/05/25 05:13:10;;;;;;;7.97;5.00;;;;;;;;;;5010578;28;20452;-85
2023/05/25 05:15:36;;;;;;;8.52;4.90;;;;;;;;;;5008191;28;20397;-85
2023/05/25 05:18:02;;;;;;;8.25;5.00;;;;;;;;;;5009709;28;20385;-86
2023/05/25 05:20:28;;;;;;;9.70;5.38;;;;;;;;;;5010779;28;20384;-85
2023/05/25 05:22:54;;;;;;;7.00;5.07;;;;;;;;;;5010472;28;20395;-85
2023/05/25 05:25:20;;;;;;;8.18;4.93;;;;;;;;;;5010144;28;20774;-83
2023/05/25 05:27:46;;;;;;;7.90;4.95;;;;;;;;;;5012418;28;20393;-84
2023/05/25 05:30:15;;;;;;;6.93;4.85;;;;;;;;;;5013915;28;20389;-82
2023/05/25 05:32:41;;;;;;;7.35;5.43;;;;;;;;;;5013747;28;20424;-83
2023/05/25 05:35:07;;;;;;;7.15;4.90;;;;;;;;;;4996788;28;20414;-82
2023/05/25 05:37:33;;;;;;;8.20;5.20;;;;;;;;;;5013692;28;20408;-83
2023/05/25 05:39:59;;;;;;;6.23;4.97;;;;;;;;;;5002810;28;20404;-82
2023/05/25 05:42:25;;;;;;;7.80;5.47;;;;;;;;;;5013923;28;20393;-82
2023/05/25 05:44:51;;;;;;;9.60;5.50;;;;;;;;;;5012752;28;20459;-82
2023/05/25 05:47:17;;;;;;;7.30;5.30;;;;;;;;;;5012817;28;20892;-82
2023/05/25 05:49:43;;;;;;;7.27;5.33;;;;;;;;;;5013388;28;20401;-81
2023/05/25 05:52:09;;;;;;;7.60;5.05;;;;;;;;;;5013368;28;20412;-82
2023/05/25 05:54:35;;;;;;;6.10;5.05;;;;;;;;;;5013762;28;20853;-80
2023/05/25 05:57:02;;;;;;;7.90;5.30;;;;;;;;;;5013273;28;20424;-82
2023/05/25 05:59:28;;;;;;;6.97;5.55;;;;;;;;;;5012978;28;20381;-80
2023/05/25 06:01:54;;;;;;;8.35;5.43;;;;;;;;;;5013360;28;20461;-82
2023/05/25 06:04:24;;;;;;;7.47;5.68;;;;;;;;;;5013094;28;20396;-80
2023/05/25 06:06:50;;;;;;;9.23;5.97;;;;;;;;;;5013039;28;20854;-80
2023/05/25 06:09:16;;;;;;;6.55;5.53;;;;;;;;;;5013568;28;20381;-82
2023/05/25 06:11:41;;;;;;;6.75;6.00;;;;;;;;;;5013519;28;20766;-81
2023/05/25 06:14:07;;;;;;;7.90;5.68;;;;;;;;;;5009909;28;20471;-81
2023/05/25 06:16:33;;;;;;;7.03;5.32;;;;;;;;;;5008483;28;20387;-82
2023/05/25 06:19:00;;;;;;;7.67;5.90;;;;;;;;;;5010440;28;20396;-82
2023/05/25 06:21:26;;;;;;;7.95;5.70;;;;;;;;;;5013368;28;20395;-82
2023/05/25 06:23:52;;;;;;;7.80;5.90;;;;;;;;;;5013173;28;20420;-82
2023/05/25 06:26:18;;;;;;;8.50;6.20;;;;;;;;;;5012892;28;20417;-84
2023/05/25 06:28:45;;;;;;;8.68;6.53;;;;;;;;;;5008261;28;20396;-83
2023/05/25 06:31:11;;;;;;;7.23;6.20;;;;;;;;;;5013064;28;20531;-82
2023/05/25 06:33:37;;;;;;;7.95;6.28;;;;;;;;;;5013018;28;20432;-81
2023/05/25 06:36:03;;;;;;;8.05;6.38;;;;;;;;;;5013078;28;20388;-81
2023/05/25 06:38:30;;;;;;;9.45;6.75;;;;;;;;;;5014941;28;20500;-82
2023/05/25 06:40:56;;;;;;;7.85;6.40;;;;;;;;;;5012389;28;20388;-80
2023/05/25 06:43:22;;;;;;;9.15;6.70;;;;;;;;;;5012686;28;20408;-80
2023/05/25 06:45:48;;;;;;;7.93;6.88;;;;;;;;;;5012937;28;20793;-80
2023/05/25 06:48:14;;;;;;;8.93;6.90;;;;;;;;;;5012634;28;20400;-80
2023/05/25 06:50:41;;;;;;;7.90;6.63;;;;;;;;;;5012849;28;20416;-79
2023/05/25 06:53:07;;;;;;;7.82;6.85;;;;;;;;;;5012513;28;20747;-81
2023/05/25 06:55:33;;;;;;;8.60;7.07;;;;;;;;;;5015193;28;20451;-81
2023/05/25 06:57:59;;;;;;;7.40;6.55;;;;;;;;;;4994201;28;20500;-81
2023/05/25 07:00:25;;;;;;;8.68;6.75;;;;;;;;;;5012663;28;20807;-81
2023/05/25 07:02:51;;;;;;;7.32;6.50;;;;;;;;;;5012589;28;20380;-81
2023/05/25 07:05:17;;;;;;;7.50;6.80;;;;;;;;;;5012427;28;20862;-82
2023/05/25 07:07:43;;;;;;;8.70;6.75;;;;;;;;;;5012419;28;20467;-82
2023/05/25 07:10:09;;;;;;;8.00;7.25;;;;;;;;;;5012346;28;20392;-82
2023/05/25 07:12:35;;;;;;;6.97;6.25;;;;;;;;;;5012296;28;20459;-82
2023/05/25 07:15:01;;;;;;;8.82;7.53;;;;;;;;;;5012233;28;20389;-82
2023/05/25 07:17:30;;;;;;;8.15;6.63;;;;;;;;;;5012237;28;20380;-81
2023/05/25 07:19:56;;;;;;;8.25;6.70;;;;;;;;;;5012286;28;20380;-81
2023/05/25 07:22:22;;;;;;;8.38;6.65;;;;;;;;;;5012095;28;20391;-83
2023/05/25 07:24:48;;;;;;;8.40;6.93;;;;;;;;;;5012247;28;20408;-82
2023/05/25 07:27:15;;;;;;;8.00;6.70;;;;;;;;;;5011665;28;20424;-83
2023/05/25 07:29:41;;;;;;;7.90;6.80;;;;;;;;;;5012264;28;20869;-82
2023/05/25 07:32:07;;;;;;;8.63;7.15;;;;;;;;;;5011958;28;20441;-81
2023/05/25 07:34:33;;;;;;;8.02;6.95;;;;;;;;;;5011840;28;20448;-81
2023/05/25 07:36:59;;;;;;;7.83;7.10;;;;;;;;;;5011969;28;20389;-80
2023/05/25 07:39:26;;;;;;;7.93;7.03;;;;;;;;;;5011469;28;20396;-81
2023/05/25 07:41:52;;;;;;;7.53;6.82;;;;;;;;;;5011773;28;20455;-81
2023/05/25 07:44:18;;;;;;;8.40;7.50;;;;;;;;;;5011565;28;20807;-81
2023/05/25 07:46:44;;;;;;;8.40;7.60;;;;;;;;;;4993732;28;20401;-80
2023/05/25 07:49:14;;;;;;;9.93;7.60;;;;;;;;;;5011012;28;20396;-81
2023/05/25 07:51:40;;;;;;;8.07;7.13;;;;;;;;;;5011576;28;20416;-81
2023/05/25 07:54:06;;;;;;;11.18;7.65;;;;;;;;;;5011421;28;20815;-81
2023/05/25 07:56:32;;;;;;;7.95;7.10;;;;;;;;;;5011365;28;20413;-79
2023/05/25 07:58:59;;;;;;;9.02;8.13;;;;;;;;;;5011308;28;20435;-81
2023/05/25 08:01:25;;;;;;;8.25;7.45;;;;;;;;;;5011382;28;20956;-81
2023/05/25 08:03:51;;;;;;;8.35;7.55;;;;;;;;;;5011579;28;20380;-81
2023/05/25 08:06:18;;;;;;;7.80;7.07;;;;;;;;;;5011411;28;20415;-81
2023/05/25 08:08:44;;;;;;;8.77;7.90;;;;;;;;;;4993484;28;20385;-81
2023/05/25 08:11:10;;;;;;;8.87;7.97;;;;;;;;;;5010428;28;20535;-80
2023/05/25 08:13:37;;;;;;;10.05;8.75;;;;;;;;;;5010307;28;20420;-82
2023/05/25 08:16:03;;;;;;;10.15;8.30;;;;;;;;;;5011289;28;20923;-82
2023/05/25 08:18:30;;;;;;;8.77;7.97;;;;;;;;;;5011131;28;20380;-83
2023/05/25 08:20:56;;;;;;;8.60;7.70;;;;;;;;;;5010522;28;20380;-83
2023/05/25 08:23:22;;;;;;;8.48;7.68;;;;;;;;;;5011297;28;20924;-82
2023/05/25 08:25:48;;;;;;;8.98;8.07;;;;;;;;;;5011100;28;20468;-83
2023/05/25 08:28:14;;;;;;;8.53;7.73;;;;;;;;;;5011024;28;20467;-82
2023/05/25 08:30:42;;;;;;;8.80;7.80;;;;;;;;;;5013696;28;20380;-82
2023/05/25 08:33:08;;;;;;;9.02;8.13;;;;;;;;;;5013422;28;20412;-82
2023/05/25 08:35:38;;;;;;;8.98;7.70;;;;;;;;;;5011231;28;21144;-82
2023/05/25 08:38:04;;;;;;;9.20;8.30;;;;;;;;;;5010886;28;20455;-83
2023/05/25 08:40:30;;;;;;;9.48;8.57;;;;;;;;;;5011206;28;20388;-82
2023/05/25 08:42:56;;;;;;;10.77;8.25;;;;;;;;;;5011095;28;20376;-81
2023/05/25 08:45:22;;;;;;;8.65;7.85;;;;;;;;;;5011226;28;20861;-83
2023/05/25 08:47:50;;;;;;;8.85;8.02;;;;;;;;;;5010905;28;20381;-83
2023/05/25 08:50:16;;;;;;;11.33;8.63;;;;;;;;;;5011131;28;20467;-82
2023/05/25 08:52:47;;;;;;;8.93;7.95;;;;;;;;;;5011127;28;20444;-82
2023/05/25 08:55:14;;;;;;;8.32;7.63;;;;;;;;;;5010657;28;20384;-82
2023/05/25 08:57:51;;;;;;;9.97;8.40;;;;;;;;;;5019517;28;20449;-82
2023/05/25 09:00:19;;;;;;;9.50;8.50;;;;;;;;;;5011383;28;20377;-82
2023/05/25 09:02:45;;;;;;;8.93;8.13;;;;;;;;;;5014795;28;20381;-82
2023/05/25 09:05:12;;;;;;;9.00;8.10;;;;;;;;;;5014688;28;20797;-82
2023/05/25 09:07:39;;;;;;;9.23;8.43;;;;;;;;;;5014673;28;20389;-82
2023/05/25 09:10:07;;;;;;;10.20;9.13;;;;;;;;;;5014574;28;20864;-82
2023/05/25 09:12:34;;;;;;;10.93;8.75;;;;;;;;;;5014616;28;20409;-81
2023/05/25 09:15:00;;;;;;;8.95;8.15;;;;;;;;;;5014467;28;20387;-82
2023/05/25 09:17:26;;;;;;;9.18;8.27;;;;;;;;;;5014538;28;20389;-82
2023/05/25 09:19:52;;;;;;;9.13;8.23;;;;;;;;;;5014533;28;20872;-82
2023/05/25 09:22:18;;;;;;;9.77;8.32;;;;;;;;;;5014314;28;20381;-82
2023/05/25 09:24:44;;;;;;;9.35;8.45;;;;;;;;;;5014386;28;20429;-82
2023/05/25 09:27:11;;;;;;;9.32;8.35;;;;;;;;;;5014206;28;20388;-82
2023/05/25 09:29:37;;;;;;;8.50;7.78;;;;;;;;;;5014286;28;20380;-82
2023/05/25 09:32:06;;;;;;;8.95;8.15;;;;;;;;;;5014055;28;20909;-82
2023/05/25 09:34:33;;;;;;;14.37;13.07;;;;;;;;;;4996656;28;20480;-82
2023/05/25 09:36:59;;;;;;;8.25;7.45;;;;;;;;;;5013942;28;20471;-82
2023/05/25 09:39:26;;;;;;;8.68;7.75;;;;;;;;;;5014005;28;20385;-82
2023/05/25 09:41:52;;;;;;;8.10;7.40;;;;;;;;;;5014055;28;20888;-82
2023/05/25 09:44:18;;;;;;;7.87;7.17;;;;;;;;;;5014011;28;20797;-82
2023/05/25 09:46:44;;;;;;;8.02;7.22;;;;;;;;;;5013736;28;20405;-82
2023/05/25 09:49:10;;;;;;;8.82;7.93;;;;;;;;;;5014704;28;20388;-82
2023/05/25 09:51:37;;;;;;;8.48;7.50;;;;;;;;;;5013692;28;20928;-83
2023/05/25 09:54:03;;;;;;;8.45;7.65;;;;;;;;;;5013444;28;20447;-83
2023/05/25 09:56:31;;;;;;;8.47;7.60;;;;;;;;;;5013379;28;20482;-82
2023/05/25 09:58:57;;;;;;;8.35;7.57;;;;;;;;;;5013511;28;20396;-83
2023/05/25 10:01:23;;;;;;;8.18;7.38;;;;;;;;;;5016139;28;20407;-82
2023/05/25 10:03:50;;;;;;;20.52;18.40;;;;;;;;;;5013780;28;20959;-82
2023/05/25 10:06:16;;;;;;;9.55;8.70;;;;;;;;;;5013342;28;20389;-82
2023/05/25 10:08:47;;;;;;;9.70;8.90;;;;;;;;;;4995817;28;20440;-81
2023/05/25 10:11:13;;;;;;;9.57;8.57;;;;;;;;;;5013544;28;20385;-82
2023/05/25 10:13:40;;;;;;;9.60;8.63;;;;;;;;;;5012592;28;20381;-82
2023/05/25 10:16:07;;;;;;;10.83;9.73;;;;;;;;;;5013466;28;20808;-83
2023/05/25 10:18:34;;;;;;;11.20;9.07;;;;;;;;;;5013245;28;20381;-82
2023/05/25 10:21:02;;;;;;;9.65;8.75;;;;;;;;;;5013388;28;20373;-82
2023/05/25 10:23:32;;;;;;;9.88;9.02;;;;;;;;;;5013192;28;20389;-82
2023/05/25 10:26:00;;;;;;;9.88;8.88;;;;;;;;;;5013225;28;20468;-82
2023/05/25 10:28:30;;;;;;;10.52;9.43;;;;;;;;;;5013072;28;20389;-82
2023/05/25 10:30:57;;;;;;;10.55;9.60;;;;;;;;;;5012939;28;20858;-82
2023/05/25 10:33:23;;;;;;;11.07;9.67;;;;;;;;;;5013063;28;20432;-82
2023/05/25 10:35:50;;;;;;;11.73;9.73;;;;;;;;;;5013051;28;20460;-82
2023/05/25 10:38:18;;;;;;;11.40;9.60;;;;;;;;;;5015259;28;20396;-83
2023/05/25 10:40:51;;;;;;;9.80;8.80;;;;;;;;;;5009397;28;20863;-82
2023/05/25 10:43:18;;;;;;;10.60;9.60;;;;;;;;;;5012884;28;20428;-83
2023/05/25 10:45:44;;;;;;;9.83;8.93;;;;;;;;;;5012947;28;20484;-82
2023/05/25 10:48:10;;;;;;;9.95;9.10;;;;;;;;;;5012648;28;20943;-83
2023/05/25 10:50:36;;;;;;;11.27;9.40;;;;;;;;;;5012868;28;20384;-82
2023/05/25 10:53:02;;;;;;;11.40;10.18;;;;;;;;;;5012014;28;20411;-82
2023/05/25 10:55:31;;;;;;;11.38;10.23;;;;;;;;;;5012582;28;20416;-82
2023/05/25 10:58:13;;;;;;;11.57;10.38;;;;;;;;;;5014578;28;20405;-82
2023/05/25 11:00:40;;;;;;;11.35;10.35;;;;;;;;;;5018107;28;20385;-84
2023/05/25 11:03:06;;;;;;;11.77;10.57;;;;;;;;;;5012521;28;20393;-83
2023/05/25 11:05:33;;;;;;;10.90;9.82;;;;;;;;;;5012571;28;20387;-83
2023/05/25 11:08:03;;;;;;;11.97;10.77;;;;;;;;;;5012367;28;20512;-83
2023/05/25 11:10:48;;;;;;;13.15;10.32;;;;;;;;;;5012473;28;20377;-83
2023/05/25 11:13:21;;;;;;;11.23;10.13;;;;;;;;;;5012256;28;20421;-82
2023/05/25 11:15:48;;;;;;;12.13;10.38;;;;;;;;;;5012425;28;20388;-83
2023/05/25 11:18:14;;;;;;;11.48;10.38;;;;;;;;;;5012222;28;20384;-83
2023/05/25 11:20:40;;;;;;;11.13;9.90;;;;;;;;;;5012162;28;20396;-82
2023/05/25 11:23:22;;;;;;;12.10;10.80;;;;;;;;;;5012181;28;20392;-82
2023/05/25 11:25:48;;;;;;;11.30;10.30;;;;;;;;;;5011466;28;20476;-83
2023/05/25 11:28:14;;;;;;;11.02;10.00;;;;;;;;;;5011843;28;20382;-83
2023/05/25 11:30:41;;;;;;;11.23;10.05;;;;;;;;;;5011448;28;20396;-82
2023/05/25 11:33:07;;;;;;;10.52;9.52;;;;;;;;;;5012051;28;20404;-83
2023/05/25 11:35:37;;;;;;;10.63;9.52;;;;;;;;;;4994307;28;20381;-83
2023/05/25 11:38:07;;;;;;;11.00;9.90;;;;;;;;;;5011901;28;20377;-84
2023/05/25 11:40:33;;;;;;;12.35;10.63;;;;;;;;;;5011240;28;20467;-84
2023/05/25 11:43:00;;;;;;;11.80;10.80;;;;;;;;;;5011922;28;20388;-84
2023/05/25 11:45:30;;;;;;;10.52;9.68;;;;;;;;;;5011982;28;20456;-83
2023/05/25 11:47:57;;;;;;;10.90;9.73;;;;;;;;;;5011695;28;20719;-84
2023/05/25 11:50:22;;;;;;;11.97;10.80;;;;;;;;;;5011856;28;20496;-83
2023/05/25 11:52:48;;;;;;;12.02;10.93;;;;;;;;;;5011183;28;20507;-83
2023/05/25 11:55:16;;;;;;;10.88;9.85;;;;;;;;;;5010978;28;20527;-83
2023/05/25 11:57:42;;;;;;;14.20;10.75;;;;;;;;;;5011361;28;20921;-84
2023/05/25 12:00:10;;;;;;;11.75;10.55;;;;;;;;;;5011023;28;20432;-83
2023/05/25 12:02:40;;;;;;;11.43;10.43;;;;;;;;;;5011593;28;20381;-83
2023/05/25 12:05:06;;;;;;;11.00;10.00;;;;;;;;;;5011534;28;20866;-82
2023/05/25 12:07:32;;;;;;;11.68;10.50;;;;;;;;;;5011491;28;20392;-82
2023/05/25 12:10:05;;;;;;;11.02;10.02;;;;;;;;;;5011442;28;20861;-82
2023/05/25 12:12:37;;;;;;;10.63;9.75;;;;;;;;;;5011188;28;20435;-85
2023/05/25 12:15:03;;;;;;;11.15;10.15;;;;;;;;;;5003553;28;20859;-85
2023/05/25 12:17:29;;;;;;;12.13;10.93;;;;;;;;;;5010263;28;20384;-85
2023/05/25 12:19:55;;;;;;;11.98;10.77;;;;;;;;;;5011452;28;20802;-84
2023/05/25 12:22:21;;;;;;;12.17;10.90;;;;;;;;;;5011338;28;20460;-84
2023/05/25 12:24:49;;;;;;;11.95;10.75;;;;;;;;;;5011434;28;20447;-84
2023/05/25 12:27:21;;;;;;;10.93;9.90;;;;;;;;;;5011262;28;20404;-84
2023/05/25 12:29:48;;;;;;;11.70;10.18;;;;;;;;;;5011214;28;20401;-84
2023/05/25 12:32:14;;;;;;;12.10;10.93;;;;;;;;;;5015974;28;20413;-84
2023/05/25 12:34:40;;;;;;;11.15;10.05;;;;;;;;;;5011095;28;20393;-83
2023/05/25 12:37:17;;;;;;;13.93;9.43;;;;;;;;;;5013946;28;20391;-87
2023/05/25 12:39:43;;;;;;;10.80;9.82;;;;;;;;;;4998446;28;20420;-87
2023/05/25 12:42:14;;;;;;;11.65;10.55;;;;;;;;;;5015161;28;20428;-88
2023/05/25 12:44:40;;;;;;;11.77;10.55;;;;;;;;;;5015385;28;20755;-88
2023/05/25 12:47:18;;;;;;;11.60;10.00;;;;;;;;;;5015109;28;20408;-88
2023/05/25 12:49:46;;;;;;;10.43;9.52;;;;;;;;;;5014701;28;20570;-88
2023/05/25 12:52:32;;;;;;;10.43;9.48;;;;;;;;;;5015034;28;20409;-88
2023/05/25 12:54:58;;;;;;;11.38;9.93;;;;;;;;;;5020249;28;20844;-88
2023/05/25 12:57:34;;;;;;;11.70;10.60;;;;;;;;;;5024891;28;20408;-87
2023/05/25 13:00:00;;;;;;;12.52;11.32;;;;;;;;;;5014585;28;20380;-88
2023/05/25 13:02:26;;;;;;;11.27;10.20;;;;;;;;;;5014923;28;20384;-88
2023/05/25 13:04:52;;;;;;;11.32;10.23;;;;;;;;;;5014777;28;20411;-87
2023/05/25 13:07:18;;;;;;;12.57;10.82;;;;;;;;;;5014690;28;20858;-87
2023/05/25 13:09:44;;;;;;;11.57;10.45;;;;;;;;;;5014771;28;20395;-87
2023/05/25 13:12:10;;;;;;;10.30;9.20;;;;;;;;;;5014530;28;20409;-87
2023/05/25 13:14:36;;;;;;;10.20;9.30;;;;;;;;;;5014641;28;20917;-88
2023/05/25 13:17:02;;;;;;;10.48;9.45;;;;;;;;;;5014467;28;20376;-88
2023/05/25 13:19:28;;;;;;;11.20;10.10;;;;;;;;;;5014591;28;20377;-87
2023/05/25 13:21:55;;;;;;;11.07;10.02;;;;;;;;;;5014408;28;20450;-87
2023/05/25 13:24:21;;;;;;;10.35;9.35;;;;;;;;;;5014511;28;20415;-87
2023/05/25 13:26:48;;;;;;;10.15;9.05;;;;;;;;;;5014352;28;20389;-87
2023/05/25 13:29:14;;;;;;;10.75;9.75;;;;;;;;;;5014531;28;20385;-87
2023/05/25 13:31:41;;;;;;;12.02;9.10;;;;;;;;;;5013945;28;20417;-87
2023/05/25 13:34:07;;;;;;;9.95;8.95;;;;;;;;;;5014461;28;20467;-87
2023/05/25 13:36:33;;;;;;;9.93;8.93;;;;;;;;;;5013965;28;20906;-88
2023/05/25 13:39:00;;;;;;;11.95;9.85;;;;;;;;;;5010507;28;21254;-87
2023/05/25 13:41:27;;;;;;;10.30;9.30;;;;;;;;;;5014145;28;20385;-88
2023/05/25 13:43:53;;;;;;;11.10;10.00;;;;;;;;;;5014093;28;20464;-86
2023/05/25 13:46:19;;;;;;;10.05;9.00;;;;;;;;;;5012312;28;20794;-85
2023/05/25 13:48:46;;;;;;;9.20;8.30;;;;;;;;;;5012053;28;20400;-87
2023/05/25 13:51:16;;;;;;;11.87;10.40;;;;;;;;;;5013062;28;20566;-87
2023/05/25 13:53:42;;;;;;;9.70;8.43;;;;;;;;;;5013761;28;20471;-85
2023/05/25 13:56:09;;;;;;;9.93;8.90;;;;;;;;;;5013850;28;20399;-85
2023/05/25 13:58:35;;;;;;;9.20;8.30;;;;;;;;;;5013781;28;20815;-87
2023/05/25 14:01:01;;;;;;;9.68;8.65;;;;;;;;;;5014066;28;20377;-85
2023/05/25 14:03:27;;;;;;;10.40;8.50;;;;;;;;;;5013626;28;20460;-86
2023/05/25 14:05:53;;;;;;;8.20;7.47;;;;;;;;;;5013781;28;20487;-86
2023/05/25 14:08:19;;;;;;;10.98;9.88;;;;;;;;;;4995956;28;20413;-86
2023/05/25 14:10:45;;;;;;;8.35;7.65;;;;;;;;;;5013498;28;20476;-86
2023/05/25 14:13:11;;;;;;;8.95;8.15;;;;;;;;;;5013551;28;20417;-86
2023/05/25 14:15:37;;;;;;;11.20;8.63;;;;;;;;;;5013409;28;20460;-85
2023/05/25 14:18:03;;;;;;;9.13;7.75;;;;;;;;;;5013462;28;20779;-85
2023/05/25 14:20:32;;;;;;;8.83;7.67;;;;;;;;;;5013316;28;20566;-86
2023/05/25 14:22:59;;;;;;;9.50;8.60;;;;;;;;;;5013375;28;20435;-85
2023/05/25 14:25:25;;;;;;;9.73;8.80;;;;;;;;;;5013311;28;20878;-86
2023/05/25 14:27:51;;;;;;;9.23;7.40;;;;;;;;;;5013115;28;20439;-85
2023/05/25 14:30:17;;;;;;;8.05;6.95;;;;;;;;;;5013509;28;20388;-86
2023/05/25 14:32:43;;;;;;;7.82;7.13;;;;;;;;;;5013081;28;20419;-86
2023/05/25 14:35:09;;;;;;;9.45;7.88;;;;;;;;;;5013098;28;20377;-85
2023/05/25 14:37:35;;;;;;;9.32;8.52;;;;;;;;;;5015400;28;20412;-86